createdAt,value
2018-02-01T00:01:22.835Z,96304.86
2018-02-01T00:03:53.944Z,96296.05
2018-02-01T00:06:25.060Z,96285.97
2018-02-01T00:08:56.158Z,96285.96
2018-02-01T00:11:27.272Z,96282.54
2018-02-01T00:13:58.371Z,96280.06
2018-02-01T00:16:29.471Z,96275.88
2018-02-01T00:19:00.521Z,96283.73
2018-02-01T00:21:31.676Z,96283.88
2018-02-01T00:24:02.733Z,96270.88
2018-02-01T00:26:33.805Z,96269.42
2018-02-01T00:29:04.833Z,96269.58
2018-02-01T00:31:35.877Z,96275.59
2018-02-01T00:34:06.978Z,96272.08
2018-02-01T00:36:38.110Z,96269.84
2018-02-01T00:39:09.222Z,96267.73
2018-02-01T00:41:40.425Z,96256.75
2018-02-01T00:44:11.447Z,96252.00
2018-02-01T00:46:42.551Z,96254.89
2018-02-01T00:49:13.623Z,96251.75
2018-02-01T00:51:44.744Z,96249.38
2018-02-01T00:54:15.812Z,96246.89
2018-02-01T00:56:46.933Z,96243.87
2018-02-01T00:59:17.985Z,96249.64
2018-02-01T01:01:49.139Z,96249.23
2018-02-01T01:04:20.207Z,96239.00
2018-02-01T01:06:51.332Z,96243.72
2018-02-01T01:09:22.431Z,96243.20
2018-02-01T01:11:53.556Z,96236.50
2018-02-01T01:14:24.602Z,96230.46
2018-02-01T01:16:55.689Z,96221.02
2018-02-01T01:19:26.772Z,96223.64
2018-02-01T01:21:57.995Z,96222.47
2018-02-01T01:24:29.043Z,96225.12
2018-02-01T01:27:00.128Z,96218.30
2018-02-01T01:29:31.162Z,96217.09
2018-02-01T01:32:02.474Z,96207.13
2018-02-01T01:34:33.575Z,96212.50
2018-02-01T01:37:04.691Z,96201.49
2018-02-01T01:39:35.721Z,96199.53
2018-02-01T01:42:06.867Z,96200.05
2018-02-01T01:44:37.931Z,96197.16
2018-02-01T01:47:09.019Z,96202.15
2018-02-01T01:49:40.101Z,96191.28
2018-02-01T01:52:11.187Z,96192.44
2018-02-01T01:54:42.242Z,96184.16
2018-02-01T01:57:13.314Z,96188.64
2018-02-01T01:59:44.456Z,96183.11
2018-02-01T02:02:15.506Z,96176.95
2018-02-01T02:04:46.619Z,96167.11
2018-02-01T02:07:17.936Z,96159.62
2018-02-01T02:09:48.996Z,96162.66
2018-02-01T02:12:20.086Z,96156.75
2018-02-01T02:14:51.182Z,96158.73
2018-02-01T02:17:22.227Z,96158.52
2018-02-01T02:19:53.308Z,96149.97
2018-02-01T02:22:24.440Z,96147.98
2018-02-01T02:24:55.539Z,96148.50
2018-02-01T02:27:26.641Z,96147.08
2018-02-01T02:29:58.475Z,96137.64
2018-02-01T02:32:29.592Z,96140.23
2018-02-01T02:35:00.706Z,96141.18
2018-02-01T02:37:31.819Z,96145.53
2018-02-01T02:40:02.894Z,96148.40
2018-02-01T02:42:34.055Z,96144.31
2018-02-01T02:45:05.131Z,96133.53
2018-02-01T02:47:36.241Z,96138.52
2018-02-01T02:50:07.293Z,96131.19
2018-02-01T02:52:38.377Z,96133.30
2018-02-01T02:55:09.505Z,96136.71
2018-02-01T02:57:40.549Z,96134.89
2018-02-01T03:00:11.784Z,96134.73
2018-02-01T03:02:42.926Z,96132.50
2018-02-01T03:05:13.980Z,96136.19
2018-02-01T03:07:45.087Z,96139.09
2018-02-01T03:10:16.195Z,96141.59
2018-02-01T03:12:47.343Z,96136.23
2018-02-01T03:15:18.425Z,96134.09
2018-02-01T03:17:49.550Z,96131.87
2018-02-01T03:20:20.908Z,96133.67
2018-02-01T03:22:52.052Z,96128.58
2018-02-01T03:25:23.130Z,96128.72
2018-02-01T03:27:54.235Z,96123.98
2018-02-01T03:30:25.307Z,96132.91
2018-02-01T03:32:56.483Z,96131.69
2018-02-01T03:35:27.522Z,96129.34
2018-02-01T03:37:58.603Z,96131.71
2018-02-01T03:40:29.755Z,96126.86
2018-02-01T03:43:00.939Z,96124.87
2018-02-01T03:45:32.120Z,96131.30
2018-02-01T03:48:03.192Z,96136.61
2018-02-01T03:50:34.355Z,96129.66
2018-02-01T03:53:05.477Z,96133.28
2018-02-01T03:55:36.587Z,96130.66
2018-02-01T03:58:07.646Z,96130.03
2018-02-01T04:00:38.780Z,96135.16
2018-02-01T04:03:09.855Z,96126.80
2018-02-01T04:05:40.921Z,96121.56
2018-02-01T04:08:11.991Z,96129.31
2018-02-01T04:10:43.098Z,96117.41
2018-02-01T04:13:14.149Z,96126.32
2018-02-01T04:15:45.267Z,96136.28
2018-02-01T04:18:16.327Z,96134.33
2018-02-01T04:20:47.456Z,96139.05
2018-02-01T04:23:18.516Z,96134.05
2018-02-01T04:25:49.612Z,96128.94
2018-02-01T04:28:20.683Z,96131.84
2018-02-01T04:30:51.801Z,96146.91
2018-02-01T04:33:22.848Z,96158.45
2018-02-01T04:35:53.978Z,96161.07
2018-02-01T04:38:25.040Z,96150.08
2018-02-01T04:40:56.155Z,96156.48
2018-02-01T04:43:27.260Z,96157.53
2018-02-01T04:45:58.547Z,96160.01
2018-02-01T04:48:29.590Z,96162.63
2018-02-01T04:51:01.225Z,96167.48
2018-02-01T04:53:32.416Z,96158.05
2018-02-01T04:56:03.480Z,96174.17
2018-02-01T04:58:34.606Z,96174.84
2018-02-01T05:01:05.704Z,96179.15
2018-02-01T05:03:36.800Z,96179.41
2018-02-01T05:06:07.863Z,96187.52
2018-02-01T05:08:38.983Z,96188.58
2018-02-01T05:11:09.999Z,96186.20
2018-02-01T05:13:41.092Z,96190.64
2018-02-01T05:16:12.166Z,96182.73
2018-02-01T05:18:43.247Z,96175.79
2018-02-01T05:21:14.299Z,96174.80
2018-02-01T05:23:45.417Z,96180.30
2018-02-01T05:26:16.483Z,96171.93
2018-02-01T05:28:47.740Z,96177.69
2018-02-01T05:31:18.806Z,96189.73
2018-02-01T05:33:49.994Z,96185.69
2018-02-01T05:36:21.087Z,96190.37
2018-02-01T05:38:52.190Z,96182.53
2018-02-01T05:41:23.289Z,96176.50
2018-02-01T05:43:54.384Z,96186.59
2018-02-01T05:46:25.477Z,96189.31
2018-02-01T05:48:56.598Z,96202.64
2018-02-01T05:51:27.626Z,96200.77
2018-02-01T05:53:58.782Z,96192.42
2018-02-01T05:56:29.856Z,96188.16
2018-02-01T05:59:00.938Z,96187.05
2018-02-01T06:01:32.088Z,96186.92
2018-02-01T06:04:03.151Z,96187.55
2018-02-01T06:06:34.333Z,96189.25
2018-02-01T06:09:05.409Z,96185.97
2018-02-01T06:11:36.509Z,96180.09
2018-02-01T06:14:07.595Z,96183.23
2018-02-01T06:16:38.697Z,96187.17
2018-02-01T06:19:09.782Z,96193.71
2018-02-01T06:21:40.877Z,96200.65
2018-02-01T06:24:11.991Z,96195.79
2018-02-01T06:26:43.121Z,96193.56
2018-02-01T06:29:14.178Z,96188.71
2018-02-01T06:31:45.271Z,96188.82
2018-02-01T06:34:16.306Z,96191.58
2018-02-01T06:36:47.373Z,96189.11
2018-02-01T06:39:18.402Z,96187.16
2018-02-01T06:41:49.502Z,96180.36
2018-02-01T06:44:20.595Z,96185.98
2018-02-01T06:46:51.736Z,96187.94
2018-02-01T06:49:22.794Z,96185.83
2018-02-01T06:51:53.895Z,96181.76
2018-02-01T06:54:24.937Z,96184.52
2018-02-01T06:56:56.052Z,96190.87
2018-02-01T06:59:27.123Z,96192.02
2018-02-01T07:01:58.230Z,96198.56
2018-02-01T07:04:29.358Z,96189.83
2018-02-01T07:07:00.460Z,96196.94
2018-02-01T07:09:31.602Z,96198.00
2018-02-01T07:12:02.654Z,96201.27
2018-02-01T07:14:33.768Z,96203.77
2018-02-01T07:17:04.828Z,96205.34
2018-02-01T07:19:35.904Z,96213.30
2018-02-01T07:22:07.091Z,96208.20
2018-02-01T07:24:38.131Z,96206.92
2018-02-01T07:27:09.237Z,96204.84
2018-02-01T07:29:40.327Z,96204.97
2018-02-01T07:32:11.500Z,96205.01
2018-02-01T07:34:42.535Z,96203.16
2018-02-01T07:37:13.643Z,96209.44
2018-02-01T07:39:44.698Z,96213.41
2018-02-01T07:42:15.748Z,96219.34
2018-02-01T07:44:46.799Z,96213.23
2018-02-01T07:47:17.934Z,96214.38
2018-02-01T07:49:49.062Z,96219.12
2018-02-01T07:52:20.128Z,96220.03
2018-02-01T07:54:52.136Z,96221.22
2018-02-01T07:57:23.208Z,96220.95
2018-02-01T07:59:54.327Z,96227.36
2018-02-01T08:02:25.471Z,96226.31
2018-02-01T08:04:56.569Z,96219.10
2018-02-01T08:07:27.621Z,96221.84
2018-02-01T08:09:58.797Z,96223.03
2018-02-01T08:12:36.757Z,96223.41
2018-02-01T08:15:07.882Z,96220.37
2018-02-01T08:17:39.728Z,96222.71
2018-02-01T08:20:10.808Z,96220.30
2018-02-01T08:22:41.943Z,96223.03
2018-02-01T08:25:13.036Z,96231.95
2018-02-01T08:27:44.121Z,96233.38
2018-02-01T08:30:15.158Z,96237.00
2018-02-01T08:32:46.275Z,96232.95
2018-02-01T08:35:17.376Z,96238.34
2018-02-01T08:37:48.480Z,96234.94
2018-02-01T08:40:19.587Z,96244.75
2018-02-01T08:42:50.739Z,96238.91
2018-02-01T08:45:21.834Z,96246.11
2018-02-01T08:47:52.935Z,96255.16
2018-02-01T08:50:23.975Z,96254.33
2018-02-01T08:52:55.194Z,96260.58
2018-02-01T08:55:26.319Z,96267.14
2018-02-01T08:57:57.360Z,96266.25
2018-02-01T09:00:28.528Z,96273.67
2018-02-01T09:02:59.684Z,96264.33
2018-02-01T09:05:30.755Z,96274.06
2018-02-01T09:08:01.885Z,96274.09
2018-02-01T09:10:32.998Z,96273.20
2018-02-01T09:13:04.141Z,96282.06
2018-02-01T09:15:35.259Z,96275.73
2018-02-01T09:18:06.364Z,96277.52
2018-02-01T09:20:37.427Z,96280.93
2018-02-01T09:23:08.498Z,96282.63
2018-02-01T09:25:39.582Z,96294.77
2018-02-01T09:28:10.910Z,96304.98
2018-02-01T09:30:42.021Z,96309.05
2018-02-01T09:33:13.090Z,96309.39
2018-02-01T09:35:44.190Z,96317.12
2018-02-01T09:38:15.287Z,96316.62
2018-02-01T09:40:46.416Z,96311.61
2018-02-01T09:43:17.479Z,96315.10
2018-02-01T09:45:48.586Z,96325.25
2018-02-01T09:48:19.619Z,96324.23
2018-02-01T09:50:50.730Z,96328.76
2018-02-01T09:53:21.849Z,96335.63
2018-02-01T09:55:52.990Z,96338.70
2018-02-01T09:58:24.051Z,96331.15
2018-02-01T10:00:55.180Z,96339.56
2018-02-01T10:03:26.232Z,96329.13
2018-02-01T10:05:57.504Z,96334.05
2018-02-01T10:08:28.678Z,96334.72
2018-02-01T10:10:59.748Z,96334.28
2018-02-01T10:13:30.862Z,96339.69
2018-02-01T10:16:01.945Z,96343.73
2018-02-01T10:18:33.234Z,96344.17
2018-02-01T10:21:04.336Z,96336.27
2018-02-01T10:23:35.589Z,96339.05
2018-02-01T10:26:06.667Z,96337.23
2018-02-01T10:28:37.744Z,96336.05
2018-02-01T10:31:08.840Z,96334.91
2018-02-01T10:33:39.928Z,96337.01
2018-02-01T10:36:10.993Z,96332.03
2018-02-01T10:38:42.132Z,96339.92
2018-02-01T10:41:13.203Z,96344.00
2018-02-01T10:43:44.346Z,96349.50
2018-02-01T10:46:15.394Z,96347.41
2018-02-01T10:48:46.508Z,96354.73
2018-02-01T10:51:17.550Z,96349.87
2018-02-01T10:53:48.653Z,96349.73
2018-02-01T10:56:19.710Z,96347.77
2018-02-01T10:58:50.768Z,96346.22
2018-02-01T11:01:21.838Z,96348.83
2018-02-01T11:03:52.945Z,96340.81
2018-02-01T11:06:24.012Z,96337.02
2018-02-01T11:08:55.148Z,96336.75
2018-02-01T11:11:26.185Z,96334.64
2018-02-01T11:13:57.351Z,96326.52
2018-02-01T11:16:28.403Z,96332.81
2018-02-01T11:18:59.480Z,96337.81
2018-02-01T11:21:30.533Z,96337.53
2018-02-01T11:24:01.707Z,96332.57
2018-02-01T11:26:32.785Z,96331.02
2018-02-01T11:29:03.861Z,96331.39
2018-02-01T11:31:34.961Z,96327.98
2018-02-01T11:34:06.053Z,96323.00
2018-02-01T11:36:37.155Z,96317.73
2018-02-01T11:39:08.280Z,96325.47
2018-02-01T11:41:39.311Z,96328.85
2018-02-01T11:44:10.425Z,96319.55
2018-02-01T11:46:41.512Z,96318.91
2018-02-01T11:49:12.623Z,96312.98
2018-02-01T11:51:43.706Z,96303.41
2018-02-01T11:54:14.814Z,96306.55
2018-02-01T11:56:45.895Z,96308.58
2018-02-01T11:59:17.025Z,96310.15
2018-02-01T12:01:48.108Z,96311.86
2018-02-01T12:04:19.260Z,96315.54
2018-02-01T12:06:50.328Z,96313.93
2018-02-01T12:09:21.392Z,96318.83
2018-02-01T12:12:07.432Z,96309.81
2018-02-01T12:14:38.465Z,96311.70
2018-02-01T12:17:09.528Z,96305.30
2018-02-01T12:19:40.611Z,96308.75
2018-02-01T12:22:11.727Z,96308.80
2018-02-01T12:24:42.812Z,96309.22
2018-02-01T12:27:14.016Z,96318.02
2018-02-01T12:29:45.048Z,96310.02
2018-02-01T12:32:16.264Z,96313.69
2018-02-01T12:34:47.331Z,96310.66
2018-02-01T12:37:18.451Z,96312.61
2018-02-01T12:39:49.508Z,96316.28
2018-02-01T12:42:20.638Z,96306.08
2018-02-01T12:44:51.697Z,96306.48
2018-02-01T12:47:22.807Z,96313.03
2018-02-01T12:49:53.868Z,96305.30
2018-02-01T12:52:25.020Z,96302.13
2018-02-01T12:54:56.184Z,96304.23
2018-02-01T12:57:27.240Z,96307.66
2018-02-01T12:59:58.335Z,96303.03
2018-02-01T13:02:29.393Z,96302.10
2018-02-01T13:05:00.499Z,96311.04
2018-02-01T13:07:31.590Z,96309.74
2018-02-01T13:10:02.735Z,96302.22
2018-02-01T13:12:33.849Z,96295.30
2018-02-01T13:15:04.897Z,96296.60
2018-02-01T13:17:35.997Z,96290.98
2018-02-01T13:20:07.114Z,96300.71
2018-02-01T13:22:38.209Z,96301.89
2018-02-01T13:25:09.294Z,96307.13
2018-02-01T13:27:40.372Z,96306.75
2018-02-01T13:30:11.472Z,96311.06
2018-02-01T13:32:42.682Z,96303.08
2018-02-01T13:35:13.850Z,96304.37
2018-02-01T13:37:44.942Z,96313.15
2018-02-01T13:40:16.097Z,96320.73
2018-02-01T13:42:47.183Z,96335.02
2018-02-01T13:45:18.329Z,96329.34
2018-02-01T13:47:49.393Z,96330.25
2018-02-01T13:50:20.515Z,96338.95
2018-02-01T13:52:51.582Z,96340.31
2018-02-01T13:55:22.698Z,96345.62
2018-02-01T13:57:53.754Z,96343.30
2018-02-01T14:00:24.906Z,96341.57
2018-02-01T14:02:55.996Z,96342.66
2018-02-01T14:05:27.098Z,96334.83
2018-02-01T14:07:58.177Z,96335.08
2018-02-01T14:10:29.314Z,96332.95
2018-02-01T14:13:00.400Z,96334.14
2018-02-01T14:15:31.540Z,96334.16
2018-02-01T14:18:02.623Z,96337.69
2018-02-01T14:20:33.763Z,96330.36
2018-02-01T14:23:04.841Z,96340.88
2018-02-01T14:25:35.969Z,96347.73
2018-02-01T14:28:07.009Z,96355.88
2018-02-01T14:30:38.166Z,96360.89
2018-02-01T14:33:09.342Z,96356.19
2018-02-01T14:35:40.424Z,96350.76
2018-02-01T14:38:12.401Z,96363.50
2018-02-01T14:40:43.566Z,96364.27
2018-02-01T14:43:14.659Z,96364.45
2018-02-01T14:45:45.757Z,96373.49
2018-02-01T14:48:16.830Z,96368.72
2018-02-01T14:50:47.893Z,96378.84
2018-02-01T14:53:19.028Z,96384.16
2018-02-01T14:55:50.119Z,96381.88
2018-02-01T14:58:21.244Z,96376.28
2018-02-01T15:00:52.368Z,96373.23
2018-02-01T15:03:23.444Z,96376.01
2018-02-01T15:05:54.566Z,96375.15
2018-02-01T15:08:25.635Z,96382.52
2018-02-01T15:10:56.836Z,96392.23
2018-02-01T15:13:28.019Z,96388.55
2018-02-01T15:15:59.158Z,96380.06
2018-02-01T15:18:30.244Z,96377.92
2018-02-01T15:21:01.363Z,96384.70
2018-02-01T15:23:32.428Z,96388.98
2018-02-01T15:26:03.544Z,96388.75
2018-02-01T15:28:34.631Z,96401.70
2018-02-01T15:31:05.800Z,96401.97
2018-02-01T15:33:36.840Z,96397.70
2018-02-01T15:36:07.967Z,96400.35
2018-02-01T15:38:39.046Z,96394.65
2018-02-01T15:41:10.171Z,96394.21
2018-02-01T15:43:41.291Z,96400.98
2018-02-01T15:46:12.360Z,96400.88
2018-02-01T15:48:43.434Z,96409.03
2018-02-01T15:51:14.543Z,96403.91
2018-02-01T15:53:45.587Z,96415.05
2018-02-01T15:56:16.771Z,96404.99
2018-02-01T15:58:47.878Z,96407.95
2018-02-01T16:01:19.008Z,96403.98
2018-02-01T16:03:50.151Z,96408.51
2018-02-01T16:06:21.165Z,96409.55
2018-02-01T16:08:52.256Z,96405.64
2018-02-01T16:11:23.342Z,96408.89
2018-02-01T16:13:54.453Z,96410.97
2018-02-01T16:16:25.574Z,96411.96
2018-02-01T16:18:56.678Z,96408.28
2018-02-01T16:21:27.761Z,96402.98
2018-02-01T16:23:58.869Z,96408.39
2018-02-01T16:26:29.943Z,96416.70
2018-02-01T16:29:01.032Z,96414.67
2018-02-01T16:31:32.090Z,96421.30
2018-02-01T16:34:03.188Z,96424.31
2018-02-01T16:36:35.015Z,96423.75
2018-02-01T16:39:06.148Z,96430.52
2018-02-01T16:41:37.195Z,96428.29
2018-02-01T16:44:08.319Z,96432.22
2018-02-01T16:46:39.406Z,96444.89
2018-02-01T16:49:10.596Z,96434.59
2018-02-01T16:51:41.655Z,96426.41
2018-02-01T16:54:12.770Z,96420.41
2018-02-01T16:56:43.850Z,96418.19
2018-02-01T16:59:15.009Z,96432.22
2018-02-01T17:01:46.096Z,96435.09
2018-02-01T17:04:17.200Z,96446.31
2018-02-01T17:06:48.256Z,96450.73
2018-02-01T17:09:19.343Z,96448.28
2018-02-01T17:11:50.437Z,96450.63
2018-02-01T17:14:21.535Z,96459.70
2018-02-01T17:16:52.642Z,96456.86
2018-02-01T17:19:23.674Z,96454.75
2018-02-01T17:21:54.757Z,96459.52
2018-02-01T17:24:25.878Z,96462.33
2018-02-01T17:26:56.945Z,96464.05
2018-02-01T17:29:28.058Z,96461.03
2018-02-01T17:31:59.127Z,96467.80
2018-02-01T17:34:30.260Z,96474.20
2018-02-01T17:37:01.486Z,96481.14
2018-02-01T17:39:32.583Z,96478.08
2018-02-01T17:42:03.657Z,96475.07
2018-02-01T17:44:34.752Z,96477.33
2018-02-01T17:47:05.796Z,96476.08
2018-02-01T17:49:36.916Z,96462.66
2018-02-01T17:52:07.981Z,96468.30
2018-02-01T17:54:39.068Z,96475.23
2018-02-01T17:57:10.155Z,96475.78
2018-02-01T17:59:41.259Z,96471.50
2018-02-01T18:02:12.439Z,96471.84
2018-02-01T18:04:43.483Z,96473.59
2018-02-01T18:07:14.590Z,96487.73
2018-02-01T18:09:45.652Z,96488.64
2018-02-01T18:12:16.841Z,96482.63
2018-02-01T18:14:47.908Z,96487.58
2018-02-01T18:17:19.039Z,96484.63
2018-02-01T18:19:50.150Z,96472.66
2018-02-01T18:22:21.337Z,96469.88
2018-02-01T18:24:52.383Z,96474.88
2018-02-01T18:27:23.464Z,96473.44
2018-02-01T18:29:54.503Z,96476.57
2018-02-01T18:32:25.624Z,96475.11
2018-02-01T18:34:56.674Z,96475.22
2018-02-01T18:37:27.958Z,96479.31
2018-02-01T18:39:59.001Z,96480.13
2018-02-01T18:42:30.138Z,96482.52
2018-02-01T18:45:01.221Z,96482.66
2018-02-01T18:47:32.347Z,96488.14
2018-02-01T18:50:03.481Z,96482.82
2018-02-01T18:52:34.590Z,96493.59
2018-02-01T18:55:05.675Z,96496.90
2018-02-01T18:57:36.902Z,96505.97
2018-02-01T19:00:08.002Z,96503.37
2018-02-01T19:02:39.104Z,96494.23
2018-02-01T19:05:10.185Z,96496.21
2018-02-01T19:07:41.315Z,96493.72
2018-02-01T19:10:12.406Z,96494.56
2018-02-01T19:12:43.542Z,96492.70
2018-02-01T19:15:14.609Z,96494.78
2018-02-01T19:17:45.872Z,96505.30
2018-02-01T19:20:16.932Z,96502.00
2018-02-01T19:22:48.084Z,96500.77
2018-02-01T19:25:19.127Z,96501.88
2018-02-01T19:27:50.251Z,96504.61
2018-02-01T19:30:21.335Z,96504.09
2018-02-01T19:32:52.473Z,96500.46
2018-02-01T19:35:23.567Z,96506.88
2018-02-01T19:37:54.691Z,96516.46
2018-02-01T19:40:25.741Z,96528.36
2018-02-01T19:42:56.846Z,96524.77
2018-02-01T19:45:27.913Z,96517.64
2018-02-01T19:47:59.049Z,96518.20
2018-02-01T19:50:30.118Z,96522.22
2018-02-01T19:53:01.298Z,96523.05
2018-02-01T19:55:32.382Z,96520.09
2018-02-01T19:58:03.539Z,96510.95
2018-02-01T20:00:34.633Z,96510.28
2018-02-01T20:03:05.727Z,96510.87
2018-02-01T20:05:36.790Z,96522.27
2018-02-01T20:08:07.898Z,96527.37
2018-02-01T20:10:38.980Z,96517.35
2018-02-01T20:13:10.087Z,96508.80
2018-02-01T20:15:41.135Z,96508.69
2018-02-01T20:18:12.302Z,96493.31
2018-02-01T20:20:43.365Z,96494.22
2018-02-01T20:23:14.508Z,96504.03
2018-02-01T20:25:45.605Z,96509.46
2018-02-01T20:28:16.666Z,96504.43
2018-02-01T20:30:47.738Z,96508.24
2018-02-01T20:33:18.859Z,96507.75
2018-02-01T20:35:49.916Z,96522.22
2018-02-01T20:38:21.019Z,96520.69
2018-02-01T20:40:52.070Z,96519.84
2018-02-01T20:43:23.171Z,96517.33
2018-02-01T20:45:54.200Z,96516.09
2018-02-01T20:48:25.354Z,96512.23
2018-02-01T20:50:56.417Z,96510.02
2018-02-01T20:53:27.536Z,96510.70
2018-02-01T20:55:58.679Z,96515.66
2018-02-01T20:58:29.767Z,96519.64
2018-02-01T21:01:00.862Z,96515.66
2018-02-01T21:03:31.910Z,96510.03
2018-02-01T21:06:03.054Z,96500.91
2018-02-01T21:08:34.093Z,96503.63
2018-02-01T21:11:05.284Z,96501.26
2018-02-01T21:13:36.369Z,96494.95
2018-02-01T21:16:07.485Z,96501.87
2018-02-01T21:18:38.529Z,96504.00
2018-02-01T21:21:09.619Z,96502.05
2018-02-01T21:23:40.667Z,96500.98
2018-02-01T21:26:11.716Z,96501.54
2018-02-01T21:28:42.752Z,96491.44
2018-02-01T21:31:13.905Z,96483.37
2018-02-01T21:33:44.978Z,96490.98
2018-02-01T21:36:16.104Z,96495.78
2018-02-01T21:38:47.221Z,96501.63
2018-02-01T21:41:18.292Z,96505.82
2018-02-01T21:43:49.419Z,96502.81
2018-02-01T21:46:20.462Z,96506.73
2018-02-01T21:48:51.598Z,96502.02
2018-02-01T21:51:22.662Z,96503.84
2018-02-01T21:53:53.730Z,96503.95
2018-02-01T21:56:24.801Z,96507.39
2018-02-01T21:58:55.913Z,96495.80
2018-02-01T22:01:26.977Z,96488.37
2018-02-01T22:03:58.131Z,96483.78
2018-02-01T22:06:29.169Z,96499.31
2018-02-01T22:09:00.219Z,96493.25
2018-02-01T22:11:31.254Z,96499.74
2018-02-01T22:14:02.373Z,96505.92
2018-02-01T22:16:33.419Z,96494.92
2018-02-01T22:19:04.555Z,96503.55
2018-02-01T22:21:35.641Z,96506.66
2018-02-01T22:24:06.776Z,96514.48
2018-02-01T22:26:37.862Z,96517.86
2018-02-01T22:29:08.970Z,96517.77
2018-02-01T22:31:40.031Z,96509.16
2018-02-01T22:34:11.118Z,96515.02
2018-02-01T22:36:42.194Z,96515.22
2018-02-01T22:39:13.432Z,96516.41
2018-02-01T22:41:44.518Z,96514.14
2018-02-01T22:44:15.651Z,96516.75
2018-02-01T22:46:46.735Z,96519.02
2018-02-01T22:49:17.758Z,96517.66
2018-02-01T22:51:48.903Z,96520.17
2018-02-01T22:54:19.944Z,96529.21
2018-02-01T22:56:51.066Z,96527.17
2018-02-01T22:59:22.171Z,96526.83
2018-02-01T23:01:53.282Z,96522.64
2018-02-01T23:04:24.460Z,96535.05
2018-02-01T23:06:55.598Z,96535.73
2018-02-01T23:09:26.692Z,96531.88
2018-02-01T23:11:57.793Z,96538.10
2018-02-01T23:14:28.886Z,96539.41
2018-02-01T23:16:59.944Z,96543.00
2018-02-01T23:19:31.048Z,96543.98
2018-02-01T23:22:02.123Z,96545.44
2018-02-01T23:24:33.232Z,96545.55
2018-02-01T23:27:04.343Z,96544.59
2018-02-01T23:29:35.425Z,96543.86
2018-02-01T23:32:06.542Z,96548.81
2018-02-01T23:34:37.634Z,96538.95
2018-02-01T23:37:08.953Z,96540.48
2018-02-01T23:39:40.172Z,96536.95
2018-02-01T23:42:11.221Z,96535.75
2018-02-01T23:44:42.454Z,96532.86
2018-02-01T23:47:13.785Z,96531.01
2018-02-01T23:49:45.128Z,96530.19
2018-02-01T23:52:16.167Z,96525.08
2018-02-01T23:54:47.246Z,96520.60
2018-02-01T23:57:18.291Z,96517.79
2018-02-01T23:59:49.424Z,96520.00
